sensor_id;sensor_type;location;lat;lon;timestamp;P1;durP1;ratioP1;P2;durP2;ratioP2
43413;SDS011;29013;49.676;8.606;2023-08-06T00:04:51;1.97;;;1.32;;
43413;SDS011;29013;49.676;8.606;2023-08-06T00:10:15;2.9;;;1.28;;
43413;SDS011;29013;49.676;8.606;2023-08-06T00:15:40;1.99;;;1.14;;
43413;SDS011;29013;49.676;8.606;2023-08-06T00:21:05;1.22;;;1.28;;
43413;SDS011;29013;49.676;8.606;2023-08-06T00:26:23;1.45;;;0.97;;
43413;SDS011;29013;49.676;8.606;2023-08-06T00:31:42;2.08;;;1.14;;
43413;SDS011;29013;49.676;8.606;2023-08-06T00:37:07;1.29;;;1.16;;
43413;SDS011;29013;49.676;8.606;2023-08-06T00:42:27;2.07;;;1.21;;
43413;SDS011;29013;49.676;8.606;2023-08-06T00:47:48;1.2;;;1.09;;
43413;SDS011;29013;49.676;8.606;2023-08-06T00:53:10;1.63;;;1.17;;
43413;SDS011;29013;49.676;8.606;2023-08-06T00:58:35;1.91;;;1.36;;
43413;SDS011;29013;49.676;8.606;2023-08-06T01:04:40;1.36;;;1.11;;
43413;SDS011;29013;49.676;8.606;2023-08-06T01:10:14;1.68;;;1.06;;
43413;SDS011;29013;49.676;8.606;2023-08-06T01:15:29;0.96;;;0.89;;
43413;SDS011;29013;49.676;8.606;2023-08-06T01:20:53;0.89;;;0.85;;
43413;SDS011;29013;49.676;8.606;2023-08-06T01:26:21;1.24;;;0.98;;
43413;SDS011;29013;49.676;8.606;2023-08-06T01:31:43;1.83;;;1.18;;
43413;SDS011;29013;49.676;8.606;2023-08-06T01:37:08;2.26;;;0.91;;
43413;SDS011;29013;49.676;8.606;2023-08-06T01:42:31;2.16;;;0.91;;
43413;SDS011;29013;49.676;8.606;2023-08-06T01:47:56;3.2;;;0.95;;
43413;SDS011;29013;49.676;8.606;2023-08-06T01:53:41;1.51;;;1.01;;
43413;SDS011;29013;49.676;8.606;2023-08-06T01:59:04;1.06;;;0.82;;
43413;SDS011;29013;49.676;8.606;2023-08-06T02:04:29;1.76;;;0.69;;
43413;SDS011;29013;49.676;8.606;2023-08-06T02:09:53;0.96;;;0.65;;
43413;SDS011;29013;49.676;8.606;2023-08-06T02:15:14;0.98;;;0.72;;
43413;SDS011;29013;49.676;8.606;2023-08-06T02:20:57;1.19;;;0.82;;
43413;SDS011;29013;49.676;8.606;2023-08-06T02:26:20;1.01;;;0.82;;
43413;SDS011;29013;49.676;8.606;2023-08-06T02:31:43;2.06;;;1.12;;
43413;SDS011;29013;49.676;8.606;2023-08-06T02:37:08;0.98;;;0.82;;
43413;SDS011;29013;49.676;8.606;2023-08-06T02:42:31;0.96;;;0.8;;
43413;SDS011;29013;49.676;8.606;2023-08-06T02:47:55;1.21;;;0.73;;
43413;SDS011;29013;49.676;8.606;2023-08-06T02:53:19;2.95;;;0.71;;
43413;SDS011;29013;49.676;8.606;2023-08-06T02:58:44;2.35;;;0.76;;
43413;SDS011;29013;49.676;8.606;2023-08-06T03:04:09;0.82;;;0.65;;
43413;SDS011;29013;49.676;8.606;2023-08-06T03:09:31;1.32;;;0.97;;
43413;SDS011;29013;49.676;8.606;2023-08-06T03:14:53;1.57;;;0.85;;
43413;SDS011;29013;49.676;8.606;2023-08-06T03:20:17;0.9;;;0.6;;
43413;SDS011;29013;49.676;8.606;2023-08-06T03:25:42;1.01;;;0.79;;
43413;SDS011;29013;49.676;8.606;2023-08-06T03:31:06;2.26;;;0.69;;
43413;SDS011;29013;49.676;8.606;2023-08-06T03:36:33;1.66;;;0.85;;
43413;SDS011;29013;49.676;8.606;2023-08-06T03:41:50;1.42;;;0.64;;
43413;SDS011;29013;49.676;8.606;2023-08-06T03:47:14;0.91;;;0.67;;
43413;SDS011;29013;49.676;8.606;2023-08-06T03:52:38;1.87;;;0.57;;
43413;SDS011;29013;49.676;8.606;2023-08-06T03:58:03;0.65;;;0.61;;
43413;SDS011;29013;49.676;8.606;2023-08-06T04:03:28;1.15;;;0.65;;
43413;SDS011;29013;49.676;8.606;2023-08-06T04:08:45;1.43;;;0.58;;
43413;SDS011;29013;49.676;8.606;2023-08-06T04:14:09;1.13;;;0.69;;
43413;SDS011;29013;49.676;8.606;2023-08-06T04:19:33;1.51;;;0.76;;
43413;SDS011;29013;49.676;8.606;2023-08-06T04:24:59;2.3;;;0.77;;
43413;SDS011;29013;49.676;8.606;2023-08-06T04:30:25;1.33;;;0.53;;
43413;SDS011;29013;49.676;8.606;2023-08-06T04:35:47;1.15;;;0.69;;
43413;SDS011;29013;49.676;8.606;2023-08-06T04:41:16;1.67;;;0.72;;
43413;SDS011;29013;49.676;8.606;2023-08-06T04:46:59;1.01;;;0.65;;
43413;SDS011;29013;49.676;8.606;2023-08-06T04:52:23;0.73;;;0.51;;
43413;SDS011;29013;49.676;8.606;2023-08-06T04:57:47;0.53;;;0.44;;
43413;SDS011;29013;49.676;8.606;2023-08-06T05:03:29;1.53;;;0.61;;
43413;SDS011;29013;49.676;8.606;2023-08-06T05:08:52;0.63;;;0.54;;
43413;SDS011;29013;49.676;8.606;2023-08-06T05:14:16;0.47;;;0.4;;
43413;SDS011;29013;49.676;8.606;2023-08-06T05:19:41;1.61;;;0.73;;
43413;SDS011;29013;49.676;8.606;2023-08-06T05:25:07;0.91;;;0.45;;
43413;SDS011;29013;49.676;8.606;2023-08-06T05:30:40;1.09;;;0.42;;
43413;SDS011;29013;49.676;8.606;2023-08-06T05:36:01;1.19;;;0.66;;
43413;SDS011;29013;49.676;8.606;2023-08-06T05:41:45;0.67;;;0.42;;
43413;SDS011;29013;49.676;8.606;2023-08-06T05:47:05;0.54;;;0.42;;
43413;SDS011;29013;49.676;8.606;2023-08-06T05:52:31;1.22;;;0.38;;
43413;SDS011;29013;49.676;8.606;2023-08-06T05:57:54;0.36;;;0.25;;
43413;SDS011;29013;49.676;8.606;2023-08-06T06:03:18;1.18;;;0.28;;
43413;SDS011;29013;49.676;8.606;2023-08-06T06:08:42;0.25;;;0.15;;
43413;SDS011;29013;49.676;8.606;2023-08-06T06:14:28;0.24;;;0.19;;
43413;SDS011;29013;49.676;8.606;2023-08-06T06:19:51;1.19;;;0.65;;
43413;SDS011;29013;49.676;8.606;2023-08-06T06:25:17;0.94;;;0.33;;
43413;SDS011;29013;49.676;8.606;2023-08-06T06:30:42;0.69;;;0.45;;
43413;SDS011;29013;49.676;8.606;2023-08-06T06:36:07;1.42;;;0.51;;
43413;SDS011;29013;49.676;8.606;2023-08-06T06:41:30;0.73;;;0.18;;
43413;SDS011;29013;49.676;8.606;2023-08-06T06:47:14;1.73;;;0.34;;
43413;SDS011;29013;49.676;8.606;2023-08-06T06:52:35;0.31;;;0.32;;
43413;SDS011;29013;49.676;8.606;2023-08-06T06:58:19;1.05;;;0.36;;
43413;SDS011;29013;49.676;8.606;2023-08-06T07:03:44;0.33;;;0.25;;
43413;SDS011;29013;49.676;8.606;2023-08-06T07:09:08;0.71;;;0.39;;
43413;SDS011;29013;49.676;8.606;2023-08-06T07:14:32;0.43;;;0.22;;
43413;SDS011;29013;49.676;8.606;2023-08-06T07:19:54;1.79;;;0.47;;
43413;SDS011;29013;49.676;8.606;2023-08-06T07:25:18;0.72;;;0.31;;
43413;SDS011;29013;49.676;8.606;2023-08-06T07:30:43;1.51;;;0.3;;
43413;SDS011;29013;49.676;8.606;2023-08-06T07:36:16;0.15;;;0.14;;
43413;SDS011;29013;49.676;8.606;2023-08-06T07:41:41;0.37;;;0.18;;
43413;SDS011;29013;49.676;8.606;2023-08-06T07:47:04;0.79;;;0.29;;
43413;SDS011;29013;49.676;8.606;2023-08-06T07:52:21;1.19;;;0.31;;
43413;SDS011;29013;49.676;8.606;2023-08-06T07:57:46;0.55;;;0.21;;
43413;SDS011;29013;49.676;8.606;2023-08-06T08:03:08;0.68;;;0.25;;
43413;SDS011;29013;49.676;8.606;2023-08-06T08:08:33;0.48;;;0.18;;
43413;SDS011;29013;49.676;8.606;2023-08-06T08:13:58;0.54;;;0.16;;
43413;SDS011;29013;49.676;8.606;2023-08-06T08:19:27;0.31;;;0.13;;
43413;SDS011;29013;49.676;8.606;2023-08-06T08:24:52;0.15;;;0.18;;
43413;SDS011;29013;49.676;8.606;2023-08-06T08:30:35;0.51;;;0.18;;
43413;SDS011;29013;49.676;8.606;2023-08-06T08:35:59;0.44;;;0.13;;
43413;SDS011;29013;49.676;8.606;2023-08-06T08:41:23;0.31;;;0.14;;
43413;SDS011;29013;49.676;8.606;2023-08-06T08:46:44;0.19;;;0.2;;
43413;SDS011;29013;49.676;8.606;2023-08-06T08:52:28;0.34;;;0.26;;
43413;SDS011;29013;49.676;8.606;2023-08-06T08:58:02;1.22;;;0.2;;
43413;SDS011;29013;49.676;8.606;2023-08-06T09:03:23;0.56;;;0.16;;
43413;SDS011;29013;49.676;8.606;2023-08-06T09:08:50;0.21;;;0.2;;
43413;SDS011;29013;49.676;8.606;2023-08-06T09:14:13;0.19;;;0.09;;
43413;SDS011;29013;49.676;8.606;2023-08-06T09:19:34;0.17;;;0.21;;
43413;SDS011;29013;49.676;8.606;2023-08-06T09:24:58;0.6;;;0.18;;
43413;SDS011;29013;49.676;8.606;2023-08-06T09:30:32;0.82;;;0.14;;
43413;SDS011;29013;49.676;8.606;2023-08-06T09:35:54;0.09;;;0.1;;
43413;SDS011;29013;49.676;8.606;2023-08-06T09:41:24;0.14;;;0.07;;
43413;SDS011;29013;49.676;8.606;2023-08-06T09:46:44;0.54;;;0.05;;
43413;SDS011;29013;49.676;8.606;2023-08-06T09:52:09;0.56;;;0.18;;
43413;SDS011;29013;49.676;8.606;2023-08-06T09:57:37;0.21;;;0.11;;
43413;SDS011;29013;49.676;8.606;2023-08-06T10:03:00;0.1;;;0.06;;
43413;SDS011;29013;49.676;8.606;2023-08-06T10:08:20;0.0;;;0.0;;
43413;SDS011;29013;49.676;8.606;2023-08-06T10:13:44;0.0;;;0.0;;
43413;SDS011;29013;49.676;8.606;2023-08-06T10:19:09;0.05;;;0.05;;
43413;SDS011;29013;49.676;8.606;2023-08-06T10:30:22;0.0;;;0.0;;
43413;SDS011;29013;49.676;8.606;2023-08-06T10:35:44;0.09;;;0.02;;
43413;SDS011;29013;49.676;8.606;2023-08-06T10:41:09;0.01;;;0.0;;
43413;SDS011;29013;49.676;8.606;2023-08-06T10:46:34;0.04;;;0.01;;
43413;SDS011;29013;49.676;8.606;2023-08-06T10:51:57;0.03;;;0.04;;
43413;SDS011;29013;49.676;8.606;2023-08-06T10:57:17;0.14;;;0.08;;
43413;SDS011;29013;49.676;8.606;2023-08-06T11:02:41;0.06;;;0.07;;
43413;SDS011;29013;49.676;8.606;2023-08-06T11:08:03;0.01;;;0.01;;
43413;SDS011;29013;49.676;8.606;2023-08-06T11:13:23;0.01;;;0.01;;
43413;SDS011;29013;49.676;8.606;2023-08-06T11:18:47;0.07;;;0.07;;
43413;SDS011;29013;49.676;8.606;2023-08-06T11:24:09;0.06;;;0.02;;
43413;SDS011;29013;49.676;8.606;2023-08-06T11:29:28;0.25;;;0.1;;
43413;SDS011;29013;49.676;8.606;2023-08-06T11:34:49;0.06;;;0.07;;
43413;SDS011;29013;49.676;8.606;2023-08-06T11:40:10;0.11;;;0.13;;
43413;SDS011;29013;49.676;8.606;2023-08-06T11:45:36;0.32;;;0.13;;
43413;SDS011;29013;49.676;8.606;2023-08-06T11:51:00;0.27;;;0.13;;
43413;SDS011;29013;49.676;8.606;2023-08-06T11:56:25;0.11;;;0.11;;
43413;SDS011;29013;49.676;8.606;2023-08-06T12:01:46;0.02;;;0.02;;
43413;SDS011;29013;49.676;8.606;2023-08-06T12:07:11;0.16;;;0.19;;
43413;SDS011;29013;49.676;8.606;2023-08-06T12:13:01;0.06;;;0.08;;
43413;SDS011;29013;49.676;8.606;2023-08-06T12:18:24;0.19;;;0.13;;
43413;SDS011;29013;49.676;8.606;2023-08-06T12:23:48;0.45;;;0.22;;
43413;SDS011;29013;49.676;8.606;2023-08-06T12:29:10;1.2;;;0.22;;
43413;SDS011;29013;49.676;8.606;2023-08-06T12:34:34;0.37;;;0.16;;
43413;SDS011;29013;49.676;8.606;2023-08-06T12:39:57;0.16;;;0.06;;
43413;SDS011;29013;49.676;8.606;2023-08-06T12:45:16;0.89;;;0.18;;
43413;SDS011;29013;49.676;8.606;2023-08-06T12:50:37;0.08;;;0.08;;
43413;SDS011;29013;49.676;8.606;2023-08-06T12:56:01;1.89;;;0.15;;
43413;SDS011;29013;49.676;8.606;2023-08-06T13:01:27;0.11;;;0.09;;
43413;SDS011;29013;49.676;8.606;2023-08-06T13:06:52;0.19;;;0.13;;
43413;SDS011;29013;49.676;8.606;2023-08-06T13:12:17;0.1;;;0.11;;
43413;SDS011;29013;49.676;8.606;2023-08-06T13:17:40;0.07;;;0.08;;
43413;SDS011;29013;49.676;8.606;2023-08-06T13:23:22;0.31;;;0.14;;
43413;SDS011;29013;49.676;8.606;2023-08-06T13:28:46;0.65;;;0.22;;
43413;SDS011;29013;49.676;8.606;2023-08-06T13:34:11;0.15;;;0.1;;
43413;SDS011;29013;49.676;8.606;2023-08-06T13:39:36;0.19;;;0.18;;
43413;SDS011;29013;49.676;8.606;2023-08-06T13:44:59;2.98;;;0.23;;
43413;SDS011;29013;49.676;8.606;2023-08-06T13:50:24;0.16;;;0.13;;
43413;SDS011;29013;49.676;8.606;2023-08-06T13:55:46;0.58;;;0.15;;
43413;SDS011;29013;49.676;8.606;2023-08-06T14:01:11;0.06;;;0.07;;
43413;SDS011;29013;49.676;8.606;2023-08-06T14:06:36;0.1;;;0.13;;
43413;SDS011;29013;49.676;8.606;2023-08-06T14:11:58;0.08;;;0.1;;
43413;SDS011;29013;49.676;8.606;2023-08-06T14:17:23;0.09;;;0.08;;
43413;SDS011;29013;49.676;8.606;2023-08-06T14:22:46;0.78;;;0.17;;
43413;SDS011;29013;49.676;8.606;2023-08-06T14:28:10;0.15;;;0.04;;
43413;SDS011;29013;49.676;8.606;2023-08-06T14:33:33;0.07;;;0.07;;
43413;SDS011;29013;49.676;8.606;2023-08-06T14:38:54;0.15;;;0.1;;
43413;SDS011;29013;49.676;8.606;2023-08-06T14:44:28;1.47;;;0.19;;
43413;SDS011;29013;49.676;8.606;2023-08-06T14:50:24;0.11;;;0.08;;
43413;SDS011;29013;49.676;8.606;2023-08-06T14:55:50;0.05;;;0.06;;
43413;SDS011;29013;49.676;8.606;2023-08-06T15:07:16;0.19;;;0.13;;
43413;SDS011;29013;49.676;8.606;2023-08-06T15:12:37;0.65;;;0.15;;
43413;SDS011;29013;49.676;8.606;2023-08-06T15:18:03;0.35;;;0.07;;
43413;SDS011;29013;49.676;8.606;2023-08-06T15:23:26;0.05;;;0.05;;
43413;SDS011;29013;49.676;8.606;2023-08-06T15:28:51;0.14;;;0.17;;
43413;SDS011;29013;49.676;8.606;2023-08-06T15:34:14;2.24;;;0.08;;
43413;SDS011;29013;49.676;8.606;2023-08-06T15:39:37;0.06;;;0.07;;
43413;SDS011;29013;49.676;8.606;2023-08-06T15:44:58;0.24;;;0.07;;
43413;SDS011;29013;49.676;8.606;2023-08-06T15:50:18;0.06;;;0.07;;
43413;SDS011;29013;49.676;8.606;2023-08-06T15:55:42;0.06;;;0.06;;
43413;SDS011;29013;49.676;8.606;2023-08-06T16:01:37;1.04;;;0.06;;
43413;SDS011;29013;49.676;8.606;2023-08-06T16:06:56;0.28;;;0.07;;
43413;SDS011;29013;49.676;8.606;2023-08-06T16:12:18;0.08;;;0.07;;
43413;SDS011;29013;49.676;8.606;2023-08-06T16:17:40;0.26;;;0.13;;
43413;SDS011;29013;49.676;8.606;2023-08-06T16:23:05;0.1;;;0.13;;
43413;SDS011;29013;49.676;8.606;2023-08-06T16:28:29;0.06;;;0.07;;
43413;SDS011;29013;49.676;8.606;2023-08-06T16:33:51;1.62;;;0.13;;
43413;SDS011;29013;49.676;8.606;2023-08-06T16:39:15;0.13;;;0.08;;
43413;SDS011;29013;49.676;8.606;2023-08-06T16:44:39;0.12;;;0.06;;
43413;SDS011;29013;49.676;8.606;2023-08-06T16:50:05;0.3;;;0.15;;
43413;SDS011;29013;49.676;8.606;2023-08-06T16:55:33;0.34;;;0.16;;
43413;SDS011;29013;49.676;8.606;2023-08-06T17:00:59;0.11;;;0.12;;
43413;SDS011;29013;49.676;8.606;2023-08-06T17:06:23;0.16;;;0.13;;
43413;SDS011;29013;49.676;8.606;2023-08-06T17:11:48;0.17;;;0.13;;
43413;SDS011;29013;49.676;8.606;2023-08-06T17:17:26;0.26;;;0.11;;
43413;SDS011;29013;49.676;8.606;2023-08-06T17:22:44;0.07;;;0.08;;
43413;SDS011;29013;49.676;8.606;2023-08-06T17:28:07;0.11;;;0.13;;
43413;SDS011;29013;49.676;8.606;2023-08-06T17:33:28;0.21;;;0.14;;
43413;SDS011;29013;49.676;8.606;2023-08-06T17:38:51;0.2;;;0.17;;
43413;SDS011;29013;49.676;8.606;2023-08-06T17:44:15;0.26;;;0.18;;
43413;SDS011;29013;49.676;8.606;2023-08-06T17:49:38;0.9;;;0.22;;
43413;SDS011;29013;49.676;8.606;2023-08-06T17:55:02;0.2;;;0.25;;
43413;SDS011;29013;49.676;8.606;2023-08-06T18:00:24;0.3;;;0.12;;
43413;SDS011;29013;49.676;8.606;2023-08-06T18:05:55;0.11;;;0.07;;
43413;SDS011;29013;49.676;8.606;2023-08-06T18:11:19;2.3;;;0.13;;
43413;SDS011;29013;49.676;8.606;2023-08-06T18:17:05;0.45;;;0.07;;
43413;SDS011;29013;49.676;8.606;2023-08-06T18:22:28;0.33;;;0.08;;
43413;SDS011;29013;49.676;8.606;2023-08-06T18:27:51;1.85;;;0.18;;
43413;SDS011;29013;49.676;8.606;2023-08-06T18:33:15;0.42;;;0.06;;
43413;SDS011;29013;49.676;8.606;2023-08-06T18:38:36;0.39;;;0.11;;
43413;SDS011;29013;49.676;8.606;2023-08-06T18:43:53;0.41;;;0.18;;
43413;SDS011;29013;49.676;8.606;2023-08-06T18:49:12;1.59;;;0.28;;
43413;SDS011;29013;49.676;8.606;2023-08-06T18:54:32;0.05;;;0.06;;
43413;SDS011;29013;49.676;8.606;2023-08-06T19:00:04;0.96;;;0.14;;
43413;SDS011;29013;49.676;8.606;2023-08-06T19:05:32;0.06;;;0.07;;
43413;SDS011;29013;49.676;8.606;2023-08-06T19:10:57;0.01;;;0.02;;
43413;SDS011;29013;49.676;8.606;2023-08-06T19:16:35;0.05;;;0.07;;
43413;SDS011;29013;49.676;8.606;2023-08-06T19:22:02;0.04;;;0.04;;
43413;SDS011;29013;49.676;8.606;2023-08-06T19:27:30;0.08;;;0.1;;
43413;SDS011;29013;49.676;8.606;2023-08-06T19:32:59;0.32;;;0.2;;
43413;SDS011;29013;49.676;8.606;2023-08-06T19:38:26;0.14;;;0.12;;
43413;SDS011;29013;49.676;8.606;2023-08-06T19:49:29;0.21;;;0.09;;
43413;SDS011;29013;49.676;8.606;2023-08-06T19:54:52;0.39;;;0.15;;
43413;SDS011;29013;49.676;8.606;2023-08-06T20:00:40;0.52;;;0.22;;
43413;SDS011;29013;49.676;8.606;2023-08-06T20:06:09;0.09;;;0.07;;
43413;SDS011;29013;49.676;8.606;2023-08-06T20:11:35;0.13;;;0.11;;
43413;SDS011;29013;49.676;8.606;2023-08-06T20:16:57;0.4;;;0.22;;
43413;SDS011;29013;49.676;8.606;2023-08-06T20:22:22;0.07;;;0.09;;
43413;SDS011;29013;49.676;8.606;2023-08-06T20:27:46;0.06;;;0.07;;
43413;SDS011;29013;49.676;8.606;2023-08-06T20:33:11;0.15;;;0.15;;
43413;SDS011;29013;49.676;8.606;2023-08-06T20:38:34;1.32;;;0.21;;
43413;SDS011;29013;49.676;8.606;2023-08-06T20:43:57;0.61;;;0.14;;
43413;SDS011;29013;49.676;8.606;2023-08-06T20:50:05;0.24;;;0.12;;
43413;SDS011;29013;49.676;8.606;2023-08-06T20:55:26;0.4;;;0.13;;
43413;SDS011;29013;49.676;8.606;2023-08-06T21:00:48;1.59;;;0.2;;
43413;SDS011;29013;49.676;8.606;2023-08-06T21:06:09;1.04;;;0.16;;
43413;SDS011;29013;49.676;8.606;2023-08-06T21:11:34;0.11;;;0.13;;
43413;SDS011;29013;49.676;8.606;2023-08-06T21:16:57;0.15;;;0.17;;
43413;SDS011;29013;49.676;8.606;2023-08-06T21:22:24;0.61;;;0.2;;
43413;SDS011;29013;49.676;8.606;2023-08-06T21:27:56;0.87;;;0.2;;
43413;SDS011;29013;49.676;8.606;2023-08-06T21:33:16;0.84;;;0.24;;
43413;SDS011;29013;49.676;8.606;2023-08-06T21:38:39;0.14;;;0.11;;
43413;SDS011;29013;49.676;8.606;2023-08-06T21:44:05;0.87;;;0.24;;
43413;SDS011;29013;49.676;8.606;2023-08-06T21:49:23;0.57;;;0.2;;
43413;SDS011;29013;49.676;8.606;2023-08-06T21:54:44;1.03;;;0.37;;
43413;SDS011;29013;49.676;8.606;2023-08-06T22:00:19;0.11;;;0.14;;
43413;SDS011;29013;49.676;8.606;2023-08-06T22:05:58;0.14;;;0.12;;
43413;SDS011;29013;49.676;8.606;2023-08-06T22:11:23;0.17;;;0.17;;
43413;SDS011;29013;49.676;8.606;2023-08-06T22:16:53;0.35;;;0.12;;
43413;SDS011;29013;49.676;8.606;2023-08-06T22:22:15;0.78;;;0.37;;
43413;SDS011;29013;49.676;8.606;2023-08-06T22:27:39;0.19;;;0.23;;
43413;SDS011;29013;49.676;8.606;2023-08-06T22:33:21;0.21;;;0.19;;
43413;SDS011;29013;49.676;8.606;2023-08-06T22:38:40;1.11;;;0.22;;
43413;SDS011;29013;49.676;8.606;2023-08-06T22:44:16;0.18;;;0.17;;
43413;SDS011;29013;49.676;8.606;2023-08-06T22:49:40;0.66;;;0.29;;
43413;SDS011;29013;49.676;8.606;2023-08-06T22:55:13;2.52;;;0.28;;
43413;SDS011;29013;49.676;8.606;2023-08-06T23:01:00;0.95;;;0.25;;
43413;SDS011;29013;49.676;8.606;2023-08-06T23:06:34;0.56;;;0.33;;
43413;SDS011;29013;49.676;8.606;2023-08-06T23:12:02;0.98;;;0.27;;
43413;SDS011;29013;49.676;8.606;2023-08-06T23:17:49;0.67;;;0.33;;
43413;SDS011;29013;49.676;8.606;2023-08-06T23:23:11;0.21;;;0.21;;
43413;SDS011;29013;49.676;8.606;2023-08-06T23:28:36;0.48;;;0.2;;
43413;SDS011;29013;49.676;8.606;2023-08-06T23:34:04;1.79;;;0.21;;
43413;SDS011;29013;49.676;8.606;2023-08-06T23:39:25;0.4;;;0.32;;
43413;SDS011;29013;49.676;8.606;2023-08-06T23:44:51;0.45;;;0.28;;
43413;SDS011;29013;49.676;8.606;2023-08-06T23:50:22;0.38;;;0.23;;
43413;SDS011;29013;49.676;8.606;2023-08-06T23:55:43;1.05;;;0.27;;
